Time;durP1;ratioP1;P1;durP2;ratioP2;P2;SDS_P1;SDS_P2;PMS_P1;PMS_P2;Temp;Humidity;BMP_temperature;BMP_pressure;BME280_temperature;BME280_humidity;BME280_pressure;Samples;Min_cycle;Max_cycle;Signal;HPM_P1;HPM_P2
2023/01/06 00:00:24;;;;;;;1.80;0.82;;;11.30;99.90;;;;;;5015030;28;20245;-72
2023/01/06 00:02:51;;;;;;;2.03;0.50;;;11.30;99.90;;;;;;5022393;28;20087;-72
2023/01/06 00:05:17;;;;;;;1.48;0.60;;;11.20;99.90;;;;;;5009058;28;20138;-72
2023/01/06 00:07:47;;;;;;;1.10;0.50;;;11.20;99.90;;;;;;5022084;28;20069;-72
2023/01/06 00:10:13;;;;;;;0.93;0.57;;;11.20;99.90;;;;;;5024559;28;20404;-72
2023/01/06 00:12:43;;;;;;;1.00;0.50;;;11.10;99.90;;;;;;5024367;28;20462;-71
2023/01/06 00:15:10;;;;;;;2.10;0.68;;;11.20;99.90;;;;;;5003831;28;20085;-71
2023/01/06 00:17:37;;;;;;;2.33;0.80;;;11.20;99.90;;;;;;5018316;28;20056;-71
2023/01/06 00:20:04;;;;;;;1.85;0.55;;;11.20;99.90;;;;;;5022420;28;20373;-71
2023/01/06 00:22:31;;;;;;;2.80;1.08;;;11.20;99.90;;;;;;5019761;28;20045;-71
2023/01/06 00:24:57;;;;;;;2.72;1.02;;;11.30;99.90;;;;;;5020881;28;20323;-71
2023/01/06 00:27:24;;;;;;;2.17;0.73;;;11.30;99.90;;;;;;5021666;28;20440;-71
2023/01/06 00:29:51;;;;;;;4.70;1.00;;;11.40;99.90;;;;;;5004352;28;20184;-71
2023/01/06 00:32:18;;;;;;;3.47;1.25;;;11.40;99.90;;;;;;5020440;28;20477;-71
2023/01/06 00:34:45;;;;;;;2.17;1.00;;;11.40;99.90;;;;;;5016741;28;20069;-71
2023/01/06 00:37:11;;;;;;;4.15;1.10;;;11.40;99.90;;;;;;5019757;28;20049;-71
2023/01/06 00:39:38;;;;;;;1.75;0.75;;;11.40;99.90;;;;;;5021802;28;20049;-71
2023/01/06 00:42:05;;;;;;;1.50;0.80;;;11.40;99.90;;;;;;5019998;28;20136;-71
2023/01/06 00:44:37;;;;;;;1.08;0.70;;;11.40;99.90;;;;;;5013314;28;20053;-71
2023/01/06 00:47:05;;;;;;;1.27;0.90;;;11.40;99.90;;;;;;5020186;28;20470;-71
2023/01/06 00:49:32;;;;;;;1.25;0.82;;;11.40;99.90;;;;;;5002714;28;20206;-72
2023/01/06 00:51:59;;;;;;;2.60;0.80;;;11.30;99.90;;;;;;5019204;28;20203;-71
2023/01/06 00:54:26;;;;;;;1.20;0.85;;;11.30;99.90;;;;;;5019761;28;20117;-71
2023/01/06 00:56:53;;;;;;;1.60;0.93;;;11.20;99.90;;;;;;5021386;28;20053;-71
2023/01/06 00:59:22;;;;;;;1.45;0.63;;;11.20;99.90;;;;;;5021729;28;20071;-71
2023/01/06 01:01:50;;;;;;;0.95;0.70;;;11.20;99.90;;;;;;5021171;28;20129;-71
2023/01/06 01:04:17;;;;;;;0.88;0.70;;;11.20;99.90;;;;;;5019181;28;20049;-71
2023/01/06 01:06:45;;;;;;;1.17;0.60;;;11.20;99.90;;;;;;5004008;28;20446;-71
2023/01/06 01:09:15;;;;;;;0.80;0.63;;;11.20;99.90;;;;;;4984974;28;20076;-71
2023/01/06 01:14:27;;;;;;;1.50;0.90;;;11.30;99.90;;;;;;5015410;28;20052;-71
2023/01/06 01:16:53;;;;;;;1.60;0.73;;;11.30;99.90;;;;;;5020372;28;20148;-71
2023/01/06 01:19:22;;;;;;;2.72;0.90;;;11.30;99.90;;;;;;5020537;28;20052;-71
2023/01/06 01:21:49;;;;;;;2.25;0.88;;;11.30;99.90;;;;;;5020853;28;20153;-71
2023/01/06 01:24:16;;;;;;;2.85;1.08;;;11.30;99.90;;;;;;5020626;28;20411;-71
2023/01/06 01:26:42;;;;;;;2.10;1.42;;;11.30;99.90;;;;;;5019341;28;20045;-71
2023/01/06 01:29:13;;;;;;;2.20;0.73;;;11.20;99.90;;;;;;5021037;28;20073;-72
2023/01/06 01:31:40;;;;;;;2.78;0.95;;;11.20;99.90;;;;;;5019589;28;20128;-71
2023/01/06 01:34:07;;;;;;;2.08;0.80;;;11.10;99.90;;;;;;5018223;28;20168;-71
2023/01/06 01:36:34;;;;;;;3.13;1.13;;;11.10;99.90;;;;;;5018681;28;20053;-72
2023/01/06 01:39:01;;;;;;;1.20;0.60;;;11.10;99.90;;;;;;5018508;28;20050;-72
2023/01/06 01:41:28;;;;;;;1.70;0.88;;;11.10;99.90;;;;;;5020420;28;20065;-72
2023/01/06 01:43:59;;;;;;;2.63;0.80;;;11.00;99.90;;;;;;5019572;28;20063;-72
2023/01/06 01:46:39;;;;;;;1.45;0.82;;;11.00;99.90;;;;;;5018752;28;20045;-72
2023/01/06 01:49:10;;;;;;;1.58;0.95;;;11.00;99.90;;;;;;5018100;28;20062;-71
2023/01/06 01:51:39;;;;;;;1.30;0.63;;;11.00;99.90;;;;;;5019260;28;20092;-72
2023/01/06 01:54:09;;;;;;;1.83;0.85;;;11.00;99.90;;;;;;4999615;28;20842;-72
2023/01/06 01:56:37;;;;;;;1.45;0.65;;;11.00;99.90;;;;;;5019529;28;20156;-72
2023/01/06 01:59:11;;;;;;;0.98;0.50;;;11.00;99.90;;;;;;5019503;28;20409;-72
2023/01/06 02:01:38;;;;;;;1.98;0.70;;;11.00;99.90;;;;;;5002923;28;20125;-72
2023/01/06 02:04:05;;;;;;;0.60;0.60;;;11.00;99.90;;;;;;5017835;28;20080;-71
2023/01/06 02:06:32;;;;;;;1.00;0.70;;;11.00;99.90;;;;;;5018820;28;20052;-72
2023/01/06 02:09:15;;;;;;;0.93;0.60;;;11.00;99.90;;;;;;5018354;28;20441;-72
2023/01/06 02:11:42;;;;;;;1.67;0.75;;;11.10;99.90;;;;;;5020569;28;20051;-71
2023/01/06 02:14:27;;;;;;;1.70;0.47;;;11.10;99.90;;;;;;5018628;28;20052;-73
2023/01/06 02:17:31;;;;;;;1.00;0.80;;;11.10;99.90;;;;;;5018969;28;20045;-75
2023/01/06 02:20:23;;;;;;;1.65;0.60;;;11.00;99.90;;;;;;5019435;28;20386;-75
2023/01/06 02:23:09;;;;;;;1.35;0.68;;;10.80;99.90;;;;;;5017534;28;20516;-74
2023/01/06 02:25:42;;;;;;;1.42;0.70;;;10.70;99.90;;;;;;5001667;28;20060;-74
2023/01/06 02:28:30;;;;;;;1.23;0.63;;;10.60;99.90;;;;;;5001951;28;20430;-73
2023/01/06 02:31:31;;;;;;;1.85;0.65;;;10.50;99.90;;;;;;5007159;28;20145;-72
2023/01/06 02:34:27;;;;;;;0.50;0.50;;;10.40;99.90;;;;;;5006895;28;20045;-72
2023/01/06 02:37:31;;;;;;;0.75;0.50;;;10.30;99.90;;;;;;4986524;28;20060;-72
2023/01/06 02:40:16;;;;;;;0.32;0.32;;;10.20;99.90;;;;;;5019344;28;20559;-72
2023/01/06 02:43:19;;;;;;;0.75;0.50;;;10.10;99.90;;;;;;5021622;28;20483;-72
2023/01/06 02:45:55;;;;;;;0.40;0.40;;;10.00;99.90;;;;;;5003309;28;20100;-72
2023/01/06 02:48:42;;;;;;;1.73;0.60;;;9.90;99.90;;;;;;5002063;28;20045;-72
2023/01/06 02:51:09;;;;;;;0.57;0.43;;;9.90;99.90;;;;;;5005200;28;20532;-72
2023/01/06 02:53:42;;;;;;;1.60;0.70;;;9.80;99.90;;;;;;5012794;28;20408;-71
2023/01/06 02:56:09;;;;;;;0.40;0.40;;;9.60;99.90;;;;;;5018674;28;20072;-71
2023/01/06 02:58:57;;;;;;;0.73;0.40;;;9.50;99.90;;;;;;5002632;28;20077;-72
2023/01/06 03:01:34;;;;;;;1.35;0.32;;;9.50;99.90;;;;;;5023859;28;20148;-71
2023/01/06 03:04:02;;;;;;;0.50;0.32;;;9.50;99.90;;;;;;5000648;28;20053;-71
2023/01/06 03:06:30;;;;;;;0.90;0.65;;;9.40;99.90;;;;;;5013392;28;20056;-71
2023/01/06 03:08:57;;;;;;;0.30;0.30;;;9.40;99.90;;;;;;4998698;28;20053;-71
2023/01/06 03:11:24;;;;;;;0.30;0.30;;;9.30;99.90;;;;;;5021783;28;20049;-71
2023/01/06 03:14:19;;;;;;;0.73;0.40;;;9.20;99.90;;;;;;5004783;28;20541;-71
2023/01/06 03:16:46;;;;;;;0.65;0.50;;;9.20;99.90;;;;;;5012995;28;20045;-71
2023/01/06 03:19:12;;;;;;;0.60;0.60;;;9.10;99.90;;;;;;5001238;28;20444;-72
2023/01/06 03:21:41;;;;;;;1.80;0.50;;;9.10;99.90;;;;;;5007954;28;20096;-72
2023/01/06 03:24:08;;;;;;;1.08;0.55;;;9.10;99.90;;;;;;5003665;28;20049;-71
2023/01/06 03:26:36;;;;;;;0.57;0.45;;;9.00;99.90;;;;;;5020599;28;20077;-71
2023/01/06 03:29:04;;;;;;;0.50;0.40;;;9.00;99.90;;;;;;5020589;28;20069;-71
2023/01/06 03:31:44;;;;;;;0.68;0.45;;;9.00;99.90;;;;;;5020329;28;20045;-71
2023/01/06 03:34:33;;;;;;;0.57;0.40;;;8.90;99.90;;;;;;5012167;28;20161;-71
2023/01/06 03:37:30;;;;;;;0.63;0.52;;;8.90;99.90;;;;;;5018776;28;20080;-71
2023/01/06 03:40:18;;;;;;;0.47;0.30;;;8.80;99.90;;;;;;5025593;28;20045;-71
2023/01/06 03:43:10;;;;;;;1.17;0.40;;;8.80;99.90;;;;;;5020141;28;20125;-71
2023/01/06 03:45:39;;;;;;;1.27;0.57;;;8.70;99.90;;;;;;5005343;28;20447;-71
2023/01/06 03:48:31;;;;;;;0.30;0.30;;;8.60;99.90;;;;;;5006488;28;20148;-71
2023/01/06 03:51:07;;;;;;;1.30;0.40;;;8.60;99.90;;;;;;5004767;28;20151;-70
2023/01/06 03:53:47;;;;;;;0.40;0.40;;;8.60;99.90;;;;;;5017521;28;20381;-71
2023/01/06 03:56:31;;;;;;;1.02;0.50;;;8.50;99.90;;;;;;5023688;28;20124;-71
2023/01/06 03:59:03;;;;;;;1.15;0.47;;;8.50;99.90;;;;;;5023808;28;20748;-71
2023/01/06 04:01:30;;;;;;;1.65;0.60;;;8.40;99.90;;;;;;5023631;28;20231;-71
2023/01/06 04:03:56;;;;;;;0.50;0.40;;;8.40;99.90;;;;;;5022288;28;20053;-71
2023/01/06 04:06:23;;;;;;;0.65;0.50;;;8.30;99.90;;;;;;5011239;28;20045;-71
2023/01/06 04:08:50;;;;;;;0.57;0.57;;;8.30;99.90;;;;;;5007599;28;20836;-71
2023/01/06 04:14:03;;;;;;;0.50;0.38;;;8.20;99.90;;;;;;5024622;28;20139;-71
2023/01/06 04:16:29;;;;;;;0.43;0.30;;;8.20;99.90;;;;;;5024490;28;20053;-71
2023/01/06 04:18:56;;;;;;;0.35;0.35;;;8.10;99.90;;;;;;5023572;28;20139;-71
2023/01/06 04:21:23;;;;;;;0.77;0.50;;;8.10;99.90;;;;;;5024603;28;20124;-71
2023/01/06 04:23:49;;;;;;;0.35;0.35;;;8.10;99.90;;;;;;5024404;28;20732;-71
2023/01/06 04:26:16;;;;;;;1.23;0.60;;;8.00;99.90;;;;;;5022836;28;20103;-71
2023/01/06 04:28:43;;;;;;;0.43;0.43;;;8.00;99.90;;;;;;5023960;28;20053;-70
2023/01/06 04:31:10;;;;;;;0.50;0.40;;;8.00;99.90;;;;;;5018485;28;20077;-71
2023/01/06 04:33:37;;;;;;;0.60;0.50;;;7.90;99.90;;;;;;5019130;28;20108;-71
2023/01/06 04:36:04;;;;;;;1.70;0.63;;;8.00;99.90;;;;;;5005029;28;20137;-71
2023/01/06 04:38:31;;;;;;;0.82;0.40;;;7.90;99.90;;;;;;5005449;28;20046;-71
2023/01/06 04:40:57;;;;;;;0.63;0.55;;;7.90;99.90;;;;;;5006636;28;20133;-71
2023/01/06 04:43:24;;;;;;;0.50;0.50;;;7.80;99.90;;;;;;5015638;28;20065;-71
2023/01/06 04:45:51;;;;;;;0.40;0.40;;;7.80;99.90;;;;;;5023659;28;20049;-71
2023/01/06 04:48:18;;;;;;;2.05;0.40;;;7.80;99.90;;;;;;5023518;28;20517;-71
2023/01/06 04:50:44;;;;;;;0.40;0.40;;;7.80;99.90;;;;;;5021962;28;20045;-71
2023/01/06 04:53:11;;;;;;;1.70;0.70;;;7.70;99.90;;;;;;5023432;28;20141;-71
2023/01/06 04:55:39;;;;;;;0.90;0.40;;;7.70;99.90;;;;;;5023589;28;20085;-71
2023/01/06 04:58:05;;;;;;;0.77;0.55;;;7.60;99.90;;;;;;5022587;28;20128;-71
2023/01/06 05:00:32;;;;;;;0.75;0.50;;;7.60;99.90;;;;;;5022614;28;20046;-71
2023/01/06 05:02:59;;;;;;;0.40;0.40;;;7.60;99.90;;;;;;5020569;28;20053;-71
2023/01/06 05:05:25;;;;;;;0.50;0.50;;;7.60;99.90;;;;;;5015935;28;20042;-71
2023/01/06 05:07:53;;;;;;;0.82;0.40;;;7.60;99.90;;;;;;5004709;28;20229;-71
2023/01/06 05:10:20;;;;;;;0.40;0.40;;;7.50;99.90;;;;;;5003582;28;20052;-71
2023/01/06 05:12:46;;;;;;;0.55;0.50;;;7.50;99.90;;;;;;5018480;28;20054;-71
2023/01/06 05:15:13;;;;;;;0.55;0.40;;;7.50;99.90;;;;;;5023598;28;20200;-71
2023/01/06 05:17:40;;;;;;;0.65;0.50;;;7.40;99.90;;;;;;5023724;28;20060;-71
2023/01/06 05:20:07;;;;;;;0.50;0.45;;;7.50;99.90;;;;;;5021563;28;20136;-71
2023/01/06 05:22:34;;;;;;;0.43;0.43;;;7.40;99.90;;;;;;5022655;28;20046;-71
2023/01/06 05:25:01;;;;;;;0.45;0.40;;;7.40;99.90;;;;;;5022987;28;20142;-71
2023/01/06 05:27:27;;;;;;;0.73;0.57;;;7.40;99.90;;;;;;5021757;28;20049;-71
2023/01/06 05:29:54;;;;;;;2.28;0.60;;;7.40;99.90;;;;;;5022863;28;20049;-70
2023/01/06 05:32:21;;;;;;;1.88;0.45;;;7.40;99.90;;;;;;5014670;28;20049;-71
2023/01/06 05:34:47;;;;;;;0.77;0.50;;;7.40;99.90;;;;;;5003556;28;20056;-71
2023/01/06 05:37:14;;;;;;;1.23;0.50;;;7.40;99.90;;;;;;5007244;28;20133;-71
2023/01/06 05:39:41;;;;;;;0.43;0.43;;;7.40;99.90;;;;;;5003084;28;20667;-71
2023/01/06 05:42:08;;;;;;;0.43;0.43;;;7.40;99.90;;;;;;5012351;28;20053;-71
2023/01/06 05:44:34;;;;;;;0.50;0.47;;;7.40;99.90;;;;;;5005447;28;20053;-70
2023/01/06 05:47:01;;;;;;;1.13;0.70;;;7.40;99.90;;;;;;5022717;28;20457;-71
2023/01/06 05:49:28;;;;;;;1.63;0.60;;;7.40;99.90;;;;;;5021179;28;20238;-70
2023/01/06 05:51:54;;;;;;;1.35;0.63;;;7.40;99.90;;;;;;5021591;28;20546;-71
2023/01/06 05:54:21;;;;;;;1.05;0.40;;;7.40;99.90;;;;;;5022983;28;20504;-71
2023/01/06 05:56:48;;;;;;;1.25;0.50;;;7.40;99.90;;;;;;5022426;28;20103;-71
2023/01/06 05:59:15;;;;;;;1.70;0.43;;;7.40;99.90;;;;;;5022451;28;20046;-71
2023/01/06 06:01:41;;;;;;;0.70;0.40;;;7.40;99.90;;;;;;5018056;28;20038;-71
2023/01/06 06:04:10;;;;;;;0.80;0.60;;;7.40;99.90;;;;;;5006978;28;20149;-71
2023/01/06 06:06:37;;;;;;;0.47;0.32;;;7.40;99.90;;;;;;4999812;28;20069;-71
2023/01/06 06:09:04;;;;;;;1.23;0.50;;;7.40;99.90;;;;;;5019801;28;20050;-71
2023/01/06 06:11:31;;;;;;;0.95;0.55;;;7.40;99.90;;;;;;5019174;28;20124;-71
2023/01/06 06:13:58;;;;;;;0.40;0.40;;;7.40;99.90;;;;;;5020468;28;20059;-71
2023/01/06 06:16:25;;;;;;;0.68;0.50;;;7.40;99.90;;;;;;5003022;28;20137;-71
2023/01/06 06:18:54;;;;;;;0.77;0.77;;;7.40;99.90;;;;;;5012068;28;20057;-71
2023/01/06 06:21:22;;;;;;;0.52;0.40;;;7.40;99.90;;;;;;5011984;28;20057;-71
2023/01/06 06:23:49;;;;;;;0.70;0.50;;;7.40;99.90;;;;;;5009462;28;20046;-71
2023/01/06 06:26:16;;;;;;;0.28;0.25;;;7.40;99.90;;;;;;4991866;28;20121;-71
2023/01/06 06:28:42;;;;;;;1.27;0.40;;;7.40;99.90;;;;;;5009697;28;20064;-71
2023/01/06 06:31:21;;;;;;;0.50;0.30;;;7.40;99.90;;;;;;5013133;28;20041;-71
2023/01/06 06:33:49;;;;;;;0.35;0.35;;;7.40;99.90;;;;;;5009526;28;20131;-71
2023/01/06 06:36:16;;;;;;;0.40;0.40;;;7.30;99.90;;;;;;5009758;28;20160;-71
2023/01/06 06:38:44;;;;;;;0.35;0.35;;;7.30;99.90;;;;;;5011616;28;20331;-71
2023/01/06 06:41:10;;;;;;;0.40;0.32;;;7.20;99.90;;;;;;5008491;28;20144;-71
2023/01/06 06:43:37;;;;;;;0.15;0.15;;;7.20;99.90;;;;;;5014620;28;20171;-71
2023/01/06 06:46:04;;;;;;;0.20;0.20;;;7.20;99.90;;;;;;5014239;28;20056;-71
2023/01/06 06:48:31;;;;;;;0.40;0.40;;;7.10;99.90;;;;;;5008175;28;20049;-71
2023/01/06 06:51:02;;;;;;;0.40;0.40;;;7.10;99.90;;;;;;4987914;28;20129;-71
2023/01/06 06:53:29;;;;;;;0.40;0.40;;;7.10;99.90;;;;;;4999859;28;20046;-71
2023/01/06 06:55:57;;;;;;;0.38;0.35;;;7.00;99.90;;;;;;4999692;28;20160;-71
2023/01/06 06:58:25;;;;;;;0.40;0.40;;;7.00;99.90;;;;;;5006842;28;20152;-71
2023/01/06 07:00:52;;;;;;;0.30;0.30;;;6.90;99.90;;;;;;5002457;28;20140;-71
2023/01/06 07:03:19;;;;;;;0.30;0.30;;;6.90;99.90;;;;;;5014445;28;20114;-71
2023/01/06 07:05:46;;;;;;;0.32;0.32;;;6.90;99.90;;;;;;4984742;28;20053;-71
2023/01/06 07:08:13;;;;;;;0.40;0.40;;;6.80;99.90;;;;;;5011725;28;20077;-71
2023/01/06 07:10:40;;;;;;;0.55;0.30;;;6.80;99.90;;;;;;4988509;28;20072;-74
2023/01/06 07:13:07;;;;;;;0.40;0.40;;;6.80;99.90;;;;;;5033259;28;20041;-74
2023/01/06 07:15:33;;;;;;;0.73;0.47;;;6.80;99.90;;;;;;5021019;28;20214;-74
2023/01/06 07:18:01;;;;;;;0.52;0.43;;;6.80;99.90;;;;;;5018249;28;20049;-74
2023/01/06 07:20:29;;;;;;;0.55;0.50;;;6.80;99.90;;;;;;5005445;28;20073;-74
2023/01/06 07:22:56;;;;;;;0.75;0.47;;;6.70;99.90;;;;;;5034577;28;20086;-75
2023/01/06 07:25:23;;;;;;;0.30;0.30;;;6.80;99.90;;;;;;5019769;28;20475;-74
2023/01/06 07:27:58;;;;;;;0.47;0.38;;;6.70;99.90;;;;;;5023545;28;20152;-75
2023/01/06 07:30:25;;;;;;;0.63;0.52;;;6.70;99.90;;;;;;5020101;28;20442;-75
2023/01/06 07:32:52;;;;;;;0.30;0.30;;;6.70;99.90;;;;;;5016626;28;20049;-75
2023/01/06 07:35:19;;;;;;;0.43;0.30;;;6.70;99.90;;;;;;5005934;28;20401;-75
2023/01/06 07:37:45;;;;;;;0.40;0.40;;;6.70;99.90;;;;;;5038437;28;20063;-75
2023/01/06 07:40:12;;;;;;;0.38;0.38;;;6.60;99.90;;;;;;5021015;28;20060;-74
2023/01/06 07:42:39;;;;;;;0.30;0.30;;;6.60;99.90;;;;;;5020774;28;20404;-75
2023/01/06 07:45:06;;;;;;;0.98;0.50;;;6.60;99.90;;;;;;5017315;28;20053;-74
2023/01/06 07:47:33;;;;;;;0.70;0.50;;;6.60;99.90;;;;;;5020843;28;20041;-75
2023/01/06 07:50:00;;;;;;;0.38;0.38;;;6.60;99.90;;;;;;5023418;28;20137;-75
2023/01/06 07:52:26;;;;;;;0.50;0.50;;;6.50;99.90;;;;;;5015529;28;20252;-75
2023/01/06 07:54:58;;;;;;;0.63;0.60;;;6.50;99.90;;;;;;5003440;28;20045;-75
2023/01/06 07:57:28;;;;;;;0.50;0.50;;;6.50;99.90;;;;;;4983191;28;20673;-75
2023/01/06 07:59:55;;;;;;;0.40;0.40;;;6.50;99.90;;;;;;5025770;28;20414;-74
2023/01/06 08:02:21;;;;;;;0.57;0.55;;;6.50;99.90;;;;;;5018048;28;20132;-75
2023/01/06 08:04:48;;;;;;;0.95;0.40;;;6.50;99.90;;;;;;4987642;28;20280;-74
2023/01/06 08:07:16;;;;;;;0.35;0.30;;;6.50;99.90;;;;;;5010628;28;20081;-74
2023/01/06 08:09:43;;;;;;;0.38;0.38;;;6.60;99.90;;;;;;5015081;28;20455;-75
2023/01/06 08:12:11;;;;;;;0.40;0.40;;;6.60;99.90;;;;;;5005668;28;20592;-75
2023/01/06 08:14:37;;;;;;;0.30;0.30;;;6.70;99.90;;;;;;5022547;28;20061;-74
2023/01/06 08:17:04;;;;;;;0.77;0.30;;;6.70;99.90;;;;;;5022590;28;20049;-74
2023/01/06 08:19:31;;;;;;;0.50;0.50;;;6.70;99.90;;;;;;5020574;28;20542;-75
2023/01/06 08:21:58;;;;;;;0.70;0.50;;;6.80;99.90;;;;;;5018092;28;20046;-74
2023/01/06 08:24:24;;;;;;;0.30;0.30;;;6.80;99.90;;;;;;5004122;28;20382;-75
2023/01/06 08:26:51;;;;;;;0.60;0.50;;;6.90;99.90;;;;;;5019341;28;20080;-74
2023/01/06 08:29:18;;;;;;;0.73;0.50;;;6.90;99.90;;;;;;5020838;28;20056;-74
2023/01/06 08:31:44;;;;;;;0.80;0.40;;;7.00;99.90;;;;;;5000681;28;20148;-74
2023/01/06 08:34:13;;;;;;;0.40;0.40;;;7.00;99.90;;;;;;5020028;28;20099;-74
2023/01/06 08:36:42;;;;;;;0.77;0.77;;;7.10;99.90;;;;;;5015802;28;20076;-74
2023/01/06 08:39:08;;;;;;;0.40;0.40;;;7.10;99.90;;;;;;5000070;28;20277;-74
2023/01/06 08:41:35;;;;;;;0.60;0.40;;;7.20;99.90;;;;;;5004559;28;20145;-74
2023/01/06 08:44:02;;;;;;;0.57;0.45;;;7.20;99.90;;;;;;5005170;28;20306;-75
2023/01/06 08:46:28;;;;;;;0.43;0.43;;;7.20;99.90;;;;;;5019629;28;20080;-74
2023/01/06 08:48:56;;;;;;;0.40;0.40;;;7.20;99.90;;;;;;5003752;28;20713;-75
2023/01/06 08:51:23;;;;;;;0.30;0.30;;;7.20;99.90;;;;;;5001852;28;20447;-78
2023/01/06 08:53:53;;;;;;;0.40;0.40;;;7.20;99.90;;;;;;5036030;28;20049;-79
2023/01/06 08:56:30;;;;;;;0.38;0.38;;;7.20;99.90;;;;;;5001966;28;20125;-80
2023/01/06 08:58:58;;;;;;;0.40;0.40;;;7.30;99.90;;;;;;5019355;28;20440;-79
2023/01/06 09:01:33;;;;;;;0.40;0.40;;;7.30;99.90;;;;;;5015050;28;20528;-79
2023/01/06 09:04:02;;;;;;;0.38;0.38;;;7.30;99.90;;;;;;5011042;28;20048;-78
2023/01/06 09:06:29;;;;;;;0.40;0.40;;;7.40;99.90;;;;;;5017354;28;20168;-77
2023/01/06 09:08:56;;;;;;;0.30;0.30;;;7.40;99.90;;;;;;5016983;28;20140;-78
2023/01/06 09:11:23;;;;;;;0.30;0.30;;;7.40;99.90;;;;;;5014951;28;20309;-78
2023/01/06 09:13:50;;;;;;;0.43;0.43;;;7.40;99.90;;;;;;5002230;28;20051;-78
2023/01/06 09:16:16;;;;;;;0.75;0.50;;;7.40;99.90;;;;;;5019808;28;20535;-78
2023/01/06 09:18:48;;;;;;;0.63;0.45;;;7.50;99.90;;;;;;5019609;28;20397;-77
2023/01/06 09:21:21;;;;;;;0.75;0.47;;;7.50;99.90;;;;;;5020714;28;20576;-78
2023/01/06 09:23:48;;;;;;;;;;;7.60;99.90;;;;;;5017552;28;20049;-78
2023/01/06 09:26:15;;;;;;;0.50;0.47;;;7.60;99.90;;;;;;5016627;28;19999;-78
2023/01/06 09:28:42;;;;;;;0.40;0.40;;;7.60;99.90;;;;;;5019234;28;20567;-78
2023/01/06 09:31:09;;;;;;;0.30;0.30;;;7.70;99.90;;;;;;5020819;28;20076;-79
2023/01/06 09:33:35;;;;;;;0.60;0.60;;;7.80;99.90;;;;;;5015980;28;20052;-78
2023/01/06 09:36:02;;;;;;;0.50;0.40;;;7.80;99.90;;;;;;5006187;28;20053;-78
2023/01/06 09:38:29;;;;;;;1.65;0.60;;;7.80;99.90;;;;;;4994658;28;20045;-79
2023/01/06 09:41:14;;;;;;;0.75;0.57;;;7.90;99.90;;;;;;5020156;28;20285;-79
2023/01/06 09:43:51;;;;;;;0.52;0.50;;;7.90;99.90;;;;;;5020979;28;20049;-78
2023/01/06 09:46:20;;;;;;;0.55;0.52;;;8.00;99.90;;;;;;4985595;28;20129;-78
2023/01/06 09:49:07;;;;;;;0.47;0.47;;;8.00;99.90;;;;;;5007939;28;20068;-79
2023/01/06 09:51:33;;;;;;;1.75;0.70;;;8.10;99.90;;;;;;5025613;28;20060;-78
2023/01/06 09:54:40;;;;;;;1.05;0.43;;;8.10;99.90;;;;;;4989766;28;20097;-73
2023/01/06 09:57:16;;;;;;;1.40;0.47;;;8.20;99.90;;;;;;4962347;28;21528;-79
2023/01/06 09:59:57;;;;;;;0.73;0.60;;;8.20;99.90;;;;;;4993303;28;21537;-79
2023/01/06 10:02:33;;;;;;;0.60;0.50;;;8.30;99.90;;;;;;5011599;28;20089;-79
2023/01/06 10:04:59;;;;;;;0.55;0.47;;;8.40;99.90;;;;;;5014482;28;20049;-80
2023/01/06 10:07:44;;;;;;;0.82;0.50;;;8.40;99.90;;;;;;4985478;28;20063;-78
2023/01/06 10:10:34;;;;;;;0.40;0.40;;;8.40;99.90;;;;;;4984891;28;20084;-79
2023/01/06 10:13:19;;;;;;;0.50;0.50;;;8.50;99.90;;;;;;5016769;28;20049;-79
2023/01/06 10:16:03;;;;;;;2.63;1.40;;;8.50;99.90;;;;;;5018841;28;20171;-80
2023/01/06 10:18:39;;;;;;;1.52;0.80;;;8.60;99.90;;;;;;4984550;28;20391;-79
2023/01/06 10:21:11;;;;;;;2.30;0.60;;;8.60;99.90;;;;;;5015353;28;20050;-78
2023/01/06 10:23:44;;;;;;;2.27;0.80;;;8.70;99.90;;;;;;4994862;28;20136;-78
2023/01/06 10:26:36;;;;;;;1.92;1.13;;;8.80;99.90;;;;;;5000639;28;20519;-79
2023/01/06 10:29:05;;;;;;;2.03;0.80;;;8.90;99.90;;;;;;5011510;28;20042;-79
2023/01/06 10:31:33;;;;;;;2.25;0.70;;;9.00;99.90;;;;;;4997963;28;20129;-79
2023/01/06 10:34:01;;;;;;;0.70;0.70;;;9.10;99.90;;;;;;4998869;28;20135;-79
2023/01/06 10:36:33;;;;;;;1.30;0.50;;;9.20;99.90;;;;;;4999797;28;20236;-78
2023/01/06 10:39:00;;;;;;;1.33;0.60;;;9.30;99.90;;;;;;4983703;28;20619;-78
2023/01/06 10:41:55;;;;;;;0.93;0.60;;;9.40;99.90;;;;;;4998600;28;20045;-78
2023/01/06 10:44:22;;;;;;;0.90;0.47;;;9.50;99.90;;;;;;5016225;28;20123;-78
2023/01/06 10:46:49;;;;;;;0.52;0.50;;;9.70;99.90;;;;;;5017896;28;20049;-78
2023/01/06 10:49:20;;;;;;;0.70;0.60;;;9.70;99.90;;;;;;4999030;28;20303;-78
2023/01/06 10:51:55;;;;;;;0.98;0.50;;;9.70;99.90;;;;;;5018155;28;20081;-78
2023/01/06 10:54:23;;;;;;;0.60;0.60;;;9.80;99.90;;;;;;5004635;28;20078;-77
2023/01/06 10:56:55;;;;;;;1.13;0.63;;;9.90;99.90;;;;;;4998063;28;20050;-77
2023/01/06 10:59:22;;;;;;;0.98;0.68;;;9.90;99.90;;;;;;5016212;28;20049;-78
2023/01/06 11:01:50;;;;;;;1.02;0.70;;;9.90;99.90;;;;;;5003342;28;20160;-78
2023/01/06 11:04:18;;;;;;;1.55;0.70;;;10.00;99.90;;;;;;5002836;28;20051;-78
2023/01/06 11:06:59;;;;;;;0.98;0.70;;;10.10;99.90;;;;;;5004010;28;20057;-77
2023/01/06 11:09:32;;;;;;;2.38;0.90;;;10.20;99.90;;;;;;5010751;28;20126;-79
2023/01/06 11:12:00;;;;;;;;;;;10.30;99.90;;;;;;5017370;28;20053;-77
2023/01/06 11:14:31;;;;;;;1.55;0.70;;;10.30;99.90;;;;;;5002647;28;20174;-78
2023/01/06 11:17:00;;;;;;;1.20;0.80;;;10.40;99.90;;;;;;5003647;28;20068;-77
2023/01/06 11:19:43;;;;;;;1.25;0.63;;;10.40;99.90;;;;;;4986593;28;20057;-77
2023/01/06 11:22:33;;;;;;;1.33;0.80;;;10.50;99.90;;;;;;5003289;28;20195;-77
2023/01/06 11:25:00;;;;;;;1.60;0.52;;;10.70;99.90;;;;;;5008611;28;20049;-77
2023/01/06 11:27:26;;;;;;;0.90;0.70;;;10.80;99.90;;;;;;5019998;28;20137;-77
2023/01/06 11:29:53;;;;;;;1.60;0.80;;;10.80;99.90;;;;;;5020046;28;20395;-77
2023/01/06 11:32:25;;;;;;;0.60;0.60;;;11.00;99.90;;;;;;5017581;28;20194;-77
2023/01/06 11:35:00;;;;;;;1.08;0.70;;;11.10;99.90;;;;;;4994815;28;20049;-77
2023/01/06 11:37:40;;;;;;;1.27;0.70;;;11.10;99.90;;;;;;5016574;28;20122;-77
2023/01/06 11:40:22;;;;;;;1.17;0.57;;;11.20;99.90;;;;;;5004857;28;20069;-78
2023/01/06 11:42:50;;;;;;;1.23;0.60;;;11.20;99.90;;;;;;5019039;28;20045;-77
2023/01/06 11:45:33;;;;;;;1.55;0.60;;;11.20;99.90;;;;;;4987760;28;20140;-77
2023/01/06 11:48:06;;;;;;;1.33;0.82;;;11.20;99.90;;;;;;5003546;28;20061;-78
2023/01/06 11:50:33;;;;;;;1.17;0.80;;;11.20;99.90;;;;;;5020263;28;20056;-77
2023/01/06 11:53:01;;;;;;;1.23;0.80;;;11.20;99.90;;;;;;5020660;28;20049;-77
2023/01/06 11:55:29;;;;;;;1.35;0.93;;;11.20;99.90;;;;;;4985870;28;20168;-77
2023/01/06 11:58:12;;;;;;;1.42;0.80;;;11.20;99.90;;;;;;5016261;28;20049;-80
2023/01/06 12:00:44;;;;;;;1.65;0.85;;;11.10;99.90;;;;;;5020675;28;20053;-80
2023/01/06 12:03:40;;;;;;;1.35;0.70;;;11.10;99.90;;;;;;5020281;28;20105;-80
2023/01/06 12:06:13;;;;;;;0.85;0.70;;;11.10;99.90;;;;;;5011228;28;20049;-80
2023/01/06 12:09:00;;;;;;;1.48;1.08;;;11.20;99.90;;;;;;5019600;28;20057;-80
2023/01/06 12:11:55;;;;;;;1.23;0.80;;;11.20;99.90;;;;;;5005838;28;20136;-79
2023/01/06 12:14:28;;;;;;;2.25;1.00;;;11.30;99.90;;;;;;5021367;28;20420;-91
2023/01/06 12:17:22;;;;;;;1.33;0.85;;;11.40;99.90;;;;;;5020609;28;20053;-74
2023/01/06 12:20:02;;;;;;;1.88;0.75;;;11.50;99.90;;;;;;5001396;28;20144;-75
2023/01/06 12:22:52;;;;;;;1.73;0.90;;;11.60;99.90;;;;;;5020740;28;20190;-75
2023/01/06 12:25:36;;;;;;;1.27;0.80;;;11.60;99.90;;;;;;5014848;28;20045;-74
2023/01/06 12:28:05;;;;;;;1.80;1.10;;;11.60;99.90;;;;;;5018892;28;20053;-77
2023/01/06 12:30:53;;;;;;;3.25;0.95;;;11.70;99.90;;;;;;4996591;28;20663;-77
2023/01/06 12:33:46;;;;;;;1.92;0.80;;;11.70;99.90;;;;;;5020882;28;20397;-76
2023/01/06 12:36:18;;;;;;;1.10;0.80;;;11.70;99.90;;;;;;5016521;28;20064;-76
2023/01/06 12:38:53;;;;;;;2.43;1.10;;;11.60;99.90;;;;;;5018679;28;20694;-77
2023/01/06 12:41:46;;;;;;;1.60;0.75;;;11.60;99.90;;;;;;5020024;28;20364;-75
2023/01/06 12:44:19;;;;;;;0.95;0.70;;;11.70;99.90;;;;;;5019237;28;20053;-76
2023/01/06 12:46:58;;;;;;;2.90;0.85;;;11.80;99.90;;;;;;5021523;28;20053;-76
2023/01/06 12:49:39;;;;;;;1.02;0.70;;;11.80;99.90;;;;;;5018754;28;20092;-76
2023/01/06 12:52:17;;;;;;;0.50;0.50;;;11.90;99.90;;;;;;4995794;28;20357;-76
2023/01/06 12:54:49;;;;;;;2.17;0.65;;;12.00;99.90;;;;;;4990303;28;20077;-76
2023/01/06 12:57:31;;;;;;;1.20;0.63;;;12.00;99.90;;;;;;5006290;28;20137;-76
2023/01/06 13:00:21;;;;;;;1.00;0.80;;;12.10;99.90;;;;;;5022076;28;20054;-76
2023/01/06 13:03:01;;;;;;;1.45;0.77;;;12.00;99.90;;;;;;5023042;28;20489;-76
2023/01/06 13:05:36;;;;;;;1.17;0.68;;;12.10;99.90;;;;;;5020654;28;20132;-76
2023/01/06 13:08:27;;;;;;;0.52;0.52;;;12.10;99.90;;;;;;5023355;28;20164;-76
2023/01/06 13:11:04;;;;;;;1.52;0.80;;;12.20;99.90;;;;;;5007245;28;20045;-76
2023/01/06 13:14:10;;;;;;;1.33;0.90;;;12.30;99.90;;;;;;5008395;28;20200;-76
2023/01/06 13:16:45;;;;;;;1.58;0.80;;;12.30;99.90;;;;;;5008737;28;20056;-76
2023/01/06 13:19:22;;;;;;;1.45;0.90;;;12.30;99.90;;;;;;5008324;28;20351;-76
2023/01/06 13:21:49;;;;;;;1.00;0.63;;;12.30;99.90;;;;;;5023848;28;20121;-76